Ana Sayfa
METAR-TAF:

METAR-TAF

Havaalanları :

Sivas Nuri Demirağ Havalimanı

Sivas, Türkiye

Enlem: 39-45N, Boylam: 037-01E, yükseklik: 1285 m

Güncel hava durumu gözlemi

Rapor saat 08:50 UTC de 26 dakika önce yapıldı.
Rüzgar batıdan 4 kt, güneybatı ve kuzey/kuzeybatı arasında değişken
Sıcaklık 22°C
Nem 50%
Basınç 1021 hPa
Görüş mesafesi 10 km veya daha fazla
2800 ft yükseklikte az bulutlu, Kümülonimbus.
3300 ft yükseklikte parçalı çok bulutlu
gök gürültülü fırtına

METAR: LTAR 260850Z 27004KT 220V340 9999 TS FEW028CB BKN033 22/11 Q1021

Saat: 12:16 (09:16 UTC)

Tahmin

Rapor saat 07:40 UTC de 1 saat ve 36 dakika önce yapıldı.
Ayın 26'si saat 09 UTC'den ayın 26'si saat 18 UTC'ye kadar geçerli Tahmin
Rüzgar kuzey/kuzeydoğudan 8 kt
Görüş mesafesi 10 km veya daha fazla
4000 ft yükseklikte parçalı bulutlu
Dönüşüyor
ayın 26'si saat 11 UTC'den ayın 26'si saat 13 UTC'ye kadar
Rüzgar kuzey/kuzeydoğudan 18 kt

TAF: LTAR 260740Z 2609/2618 03008KT 9999 SCT040 BECMG 2611/2613 02018KT

4.000'den fazla havaalanı için hava durumu gözlemleri ve tahminleri (METAR ve TAF raporları).

Kullanılabilir istasyonlar harita üzerinde sarı ve kırmızı noktalarla gösterilir.

İstasyonun adını görmek için fareyi noktanın üzerinde gezdirin.

Sonrasında hava gözlem ve tahminlerini görmek için tıklayın.

Haritayı değiştirmek için: yaklaştırmak için siyah artı işaretli yeşil düğmeye ve uzaklaştırmak için de eksi işaretli düğmeye hızla tıklayın; bitişik haritalar için yeşil okları kullanın.


METAR-TAF: